CheckWX is a tool to help pilots better visualize weather data.  It is not intended as a substitute for an official pre-flight weather briefing.

14:02:46 UTC

KCLM TAF
William R Fairchild International Airport
Port Angeles, Washington, USA
KCLM 221125Z 2212/2312 28014KT P6SM SKC FM221800 29015G21KT P6SM SCT010 SCT070 FM222200 30014G20KT P6SM BKN030 FM230100 28011KT P6SM BKN030 FM230300 26008KT P6SM BKN035 FM230400 25007KT P6SM BKN050 FM231100 23005KT P6SM OVC030

Oct-22@
12:00 UTC

Oct-22 @ 12:00 UTC

Oct-22@
18:00 UTC

Oct-22 @ 18:00 UTC

KCLM 221125Z 2212/2312 28014KT P6SM SKC
Wind
  • 280° at 14 KTS
Cloud Levels
  • Clear skies

Oct-22@
18:00 UTC

Oct-22 @ 18:00 UTC

Oct-22@
22:00 UTC

Oct-22 @ 22:00 UTC

FM221800 29015G21KT P6SM SCT010 SCT070

From

From Standard forecast or significant change

Wind
  • 290° at 15 KTS
  • {Gusting to 21 KTS
Cloud Levels
  • Scattered at 1,000' AGL
  • Scattered at 7,000' AGL

Oct-22@
22:00 UTC

Oct-22 @ 22:00 UTC

Oct-23@
01:00 UTC

Oct-23 @ 01:00 UTC

FM222200 30014G20KT P6SM BKN030

From

From Standard forecast or significant change

Wind
  • 300° at 14 KTS
  • {Gusting to 20 KTS
Cloud Levels
  • Broken at 3,000' AGL

Oct-23@
01:00 UTC

Oct-23 @ 01:00 UTC

Oct-23@
03:00 UTC

Oct-23 @ 03:00 UTC

FM230100 28011KT P6SM BKN030

From

From Standard forecast or significant change

Wind
  • 280° at 11 KTS
Cloud Levels
  • Broken at 3,000' AGL

Oct-23@
03:00 UTC

Oct-23 @ 03:00 UTC

Oct-23@
04:00 UTC

Oct-23 @ 04:00 UTC

FM230300 26008KT P6SM BKN035

From

From Standard forecast or significant change

Wind
  • 260° at 8 KTS
Cloud Levels
  • Broken at 3,500' AGL

Oct-23@
04:00 UTC

Oct-23 @ 04:00 UTC

Oct-23@
11:00 UTC

Oct-23 @ 11:00 UTC

FM230400 25007KT P6SM BKN050

From

From Standard forecast or significant change

Wind
  • 250° at 7 KTS
Cloud Levels
  • Broken at 5,000' AGL

Oct-23@
11:00 UTC

Oct-23 @ 11:00 UTC

Oct-23@
12:00 UTC

Oct-23 @ 12:00 UTC

FM231100 23005KT P6SM OVC030

From

From Standard forecast or significant change

Wind
  • 230° at 5 KTS
Cloud Levels
  • Overcast at 3,000' AGL